Time,TemperatureF,DewpointF,PressureIn,WindDirection,WindDirectionDegrees,WindSpeedMPH,WindSpeedGustMPH,Humidity,HourlyPrecipIn,Conditions,Clouds,dailyrainin,SoftwareType,DateUTC
2013-02-07 00:05:00,37.6,33.2,29.96,SE,135,1.6,3.8,84,0.00,-RA,FEW,0.00,WeatherDisplay:10.37,2013-02-07 06:05:00,
2013-02-07 00:10:00,37.4,25.9,29.96,East,90,0.7,3.5,63,0.00,-RA,FEW,0.00,WeatherDisplay:10.37,2013-02-07 06:10:00,
2013-02-07 00:16:00,37.2,25.8,29.96,South,180,0.7,3.5,63,0.00,-RA,FEW,0.00,WeatherDisplay:10.37,2013-02-07 06:16:00,
2013-02-07 00:21:00,37.0,32.7,29.96,SE,135,1.6,4.6,84,0.00,-RA,FEW,0.00,WeatherDisplay:10.37,2013-02-07 06:21:00,
2013-02-07 00:26:00,37.0,25.6,29.96,East,90,1.6,3.8,63,0.00,-RA,FEW,0.00,WeatherDisplay:10.37,2013-02-07 06:26:00,
2013-02-07 00:32:00,37.0,25.6,29.96,SE,135,1.6,4.6,63,0.00,-RA,FEW,0.00,WeatherDisplay:10.37,2013-02-07 06:32:00,
2013-02-07 00:37:00,36.9,25.4,29.95,SSE,158,0.7,3.5,63,0.01,-RA,FEW,0.00,WeatherDisplay:10.37,2013-02-07 06:37:00,
2013-02-07 00:43:00,36.7,32.3,29.95,East,90,1.6,3.1,84,0.01,-RA,FEW,0.00,WeatherDisplay:10.37,2013-02-07 06:43:00,
2013-02-07 00:49:00,36.7,32.3,29.96,East,90,1.6,3.8,84,0.01,-RA,FEW,0.00,WeatherDisplay:10.37,2013-02-07 06:49:00,
2013-02-07 00:54:00,36.7,25.3,29.95,SE,135,0.7,3.5,63,0.00,-RA,FEW,0.00,WeatherDisplay:10.37,2013-02-07 06:54:00,
2013-02-07 01:00:00,36.5,25.1,29.95,SE,135,0.7,2.3,63,0.00,-RA,FEW,0.00,WeatherDisplay:10.37,2013-02-07 07:00:00,
2013-02-07 01:05:00,36.5,32.1,29.95,SE,135,0.7,2.3,84,0.00,OVC,FEW,0.00,WeatherDisplay:10.37,2013-02-07 07:05:00,
2013-02-07 01:11:00,36.7,27.8,29.95,SE,135,0.7,3.5,70,0.00,OVC,FEW,0.00,WeatherDisplay:10.37,2013-02-07 07:11:00,
2013-02-07 01:17:00,36.7,27.8,29.94,South,180,0.7,2.3,70,0.00,OVC,FEW,0.00,WeatherDisplay:10.37,2013-02-07 07:17:00,
2013-02-07 01:22:00,36.7,32.3,29.95,South,180,3.8,6.0,84,0.00,OVC,FEW,0.00,WeatherDisplay:10.37,2013-02-07 07:22:00,
2013-02-07 01:28:00,36.7,32.3,29.94,SE,135,0.7,4.6,84,0.00,OVC,FEW,0.00,WeatherDisplay:10.37,2013-02-07 07:28:00,
2013-02-07 01:33:00,36.7,27.8,29.94,South,180,0.7,3.5,70,0.00,OVC,FEW,0.00,WeatherDisplay:10.37,2013-02-07 07:33:00,
2013-02-07 01:39:00,36.7,27.8,29.94,South,180,0.7,2.3,70,0.00,OVC,FEW,0.00,WeatherDisplay:10.37,2013-02-07 07:39:00,
2013-02-07 01:45:00,36.7,27.8,29.94,SE,135,1.6,3.5,70,0.00,OVC,FEW,0.00,WeatherDisplay:10.37,2013-02-07 07:45:00,
2013-02-07 01:50:00,36.5,27.6,29.94,South,180,1.6,3.5,70,0.01,RA,FEW,0.01,WeatherDisplay:10.37,2013-02-07 07:50:00,
2013-02-07 01:56:00,36.5,27.6,29.94,SE,135,1.6,3.5,70,0.01,RA,FEW,0.01,WeatherDisplay:10.37,2013-02-07 07:56:00,
2013-02-07 02:01:00,36.5,32.1,29.94,South,180,0.7,3.5,84,0.01,OVC,FEW,0.01,WeatherDisplay:10.37,2013-02-07 08:01:00,
2013-02-07 02:07:00,36.5,27.6,29.94,South,180,0.7,2.3,70,0.01,OVC,FEW,0.01,WeatherDisplay:10.37,2013-02-07 08:07:00,
2013-02-07 02:13:00,36.3,31.9,29.93,East,90,1.6,3.5,84,0.01,OVC,FEW,0.01,WeatherDisplay:10.37,2013-02-07 08:13:00,
2013-02-07 02:18:00,36.3,27.5,29.93,SE,135,0.7,3.5,70,0.01,OVC,FEW,0.01,WeatherDisplay:10.37,2013-02-07 08:18:00,
2013-02-07 02:24:00,36.3,27.5,29.93,East,90,1.6,3.8,70,0.01,OVC,FEW,0.01,WeatherDisplay:10.37,2013-02-07 08:24:00,
2013-02-07 02:29:00,36.3,27.5,29.93,SE,135,0.7,2.3,70,0.02,RA,FEW,0.02,WeatherDisplay:10.37,2013-02-07 08:29:00,
2013-02-07 02:35:00,36.1,27.3,29.93,SE,135,0.7,3.5,70,0.02,RA,FEW,0.02,WeatherDisplay:10.37,2013-02-07 08:35:00,
2013-02-07 02:41:00,36.1,31.8,29.93,SE,135,0.7,2.3,84,0.02,OVC,FEW,0.02,WeatherDisplay:10.37,2013-02-07 08:41:00,
2013-02-07 02:46:00,36.1,27.3,29.93,South,180,1.6,3.5,70,0.02,OVC,FEW,0.02,WeatherDisplay:10.37,2013-02-07 08:46:00,
2013-02-07 02:52:00,36.1,27.3,29.93,SE,135,0.0,3.5,70,0.01,OVC,FEW,0.02,WeatherDisplay:10.37,2013-02-07 08:52:00,
2013-02-07 02:57:00,36.1,31.8,29.93,South,180,0.7,2.2,84,0.01,OVC,FEW,0.02,WeatherDisplay:10.37,2013-02-07 08:57:00,
2013-02-07 03:03:00,36.0,28.5,29.93,SE,135,0.7,2.3,74,0.01,-RA,FEW,0.02,WeatherDisplay:10.37,2013-02-07 09:03:00,
2013-02-07 03:09:00,36.1,28.6,29.92,East,90,1.6,3.5,74,0.02,-RA,FEW,0.04,WeatherDisplay:10.37,2013-02-07 09:09:00,
2013-02-07 03:14:00,36.1,31.8,29.92,SW,225,1.6,3.5,84,0.02,-RA,FEW,0.04,WeatherDisplay:10.37,2013-02-07 09:14:00,
2013-02-07 03:20:00,36.0,28.5,29.92,SE,135,2.2,4.6,74,0.02,-RA,FEW,0.04,WeatherDisplay:10.37,2013-02-07 09:20:00,
2013-02-07 03:25:00,36.0,31.6,29.92,SE,135,2.2,3.5,84,0.02,-RA,FEW,0.04,WeatherDisplay:10.37,2013-02-07 09:25:00,
2013-02-07 03:31:00,36.0,28.5,29.92,SW,225,0.7,3.8,74,0.01,-RA,FEW,0.04,WeatherDisplay:10.37,2013-02-07 09:31:00,
2013-02-07 03:37:00,36.0,31.6,29.92,South,180,2.2,5.4,84,0.01,-RA,FEW,0.04,WeatherDisplay:10.37,2013-02-07 09:37:00,
2013-02-07 03:42:00,36.0,28.5,29.92,South,180,0.7,3.5,74,0.02,-RA,FEW,0.05,WeatherDisplay:10.37,2013-02-07 09:42:00,
2013-02-07 03:48:00,36.0,28.5,29.92,SE,135,0.7,2.3,74,0.02,-RA,FEW,0.05,WeatherDisplay:10.37,2013-02-07 09:48:00,
2013-02-07 03:53:00,36.0,28.5,29.93,West,270,0.0,2.3,74,0.02,-RA,FEW,0.05,WeatherDisplay:10.37,2013-02-07 09:53:00,
2013-02-07 03:59:00,36.0,28.5,29.92,SE,135,0.7,2.3,74,0.04,-RA,FEW,0.06,WeatherDisplay:10.37,2013-02-07 09:59:00,
2013-02-07 04:05:00,36.0,29.4,29.92,East,90,1.6,3.5,77,0.04,-RA,FEW,0.06,WeatherDisplay:10.37,2013-02-07 10:05:00,
2013-02-07 04:10:00,36.0,31.6,29.93,SE,135,0.0,3.5,84,0.04,-RA,FEW,0.07,WeatherDisplay:10.37,2013-02-07 10:10:00,
2013-02-07 04:16:00,36.0,29.4,29.93,South,180,0.0,3.5,77,0.05,-RA,FEW,0.08,WeatherDisplay:10.37,2013-02-07 10:16:00,
2013-02-07 04:21:00,36.0,29.4,29.93,SE,135,0.0,2.3,77,0.05,-RA,FEW,0.08,WeatherDisplay:10.37,2013-02-07 10:21:00,
2013-02-07 04:27:00,36.0,29.4,29.92,SE,135,1.6,2.3,77,0.06,-RA,FEW,0.09,WeatherDisplay:10.37,2013-02-07 10:27:00,
2013-02-07 04:33:00,35.8,31.4,29.92,South,180,0.0,1.1,84,0.06,-RA,FEW,0.11,WeatherDisplay:10.37,2013-02-07 10:33:00,
2013-02-07 04:38:00,35.8,29.3,29.92,SE,135,0.0,1.1,77,0.06,-RA,FEW,0.11,WeatherDisplay:10.37,2013-02-07 10:38:00,
2013-02-07 04:44:00,35.8,29.3,29.92,SE,135,0.7,2.3,77,0.06,-RA,FEW,0.11,WeatherDisplay:10.37,2013-02-07 10:44:00,
2013-02-07 04:49:00,35.6,31.2,29.91,SE,135,0.7,2.3,84,0.07,-RA,FEW,0.12,WeatherDisplay:10.37,2013-02-07 10:49:00,
2013-02-07 04:55:00,35.6,29.1,29.91,East,90,1.6,3.8,77,0.07,-RA,FEW,0.12,WeatherDisplay:10.37,2013-02-07 10:55:00,
2013-02-07 05:01:00,35.6,31.2,29.91,East,90,1.6,2.3,84,0.07,-RA,FEW,0.13,WeatherDisplay:10.37,2013-02-07 11:01:00,
2013-02-07 05:06:00,35.6,31.2,29.90,East,90,1.6,2.3,84,0.07,-RA,FEW,0.13,WeatherDisplay:10.37,2013-02-07 11:06:00,
2013-02-07 05:12:00,35.6,29.1,29.90,SE,135,0.0,4.6,77,0.06,-RA,FEW,0.13,WeatherDisplay:10.37,2013-02-07 11:12:00,
2013-02-07 05:17:00,35.6,31.2,29.91,South,180,0.0,2.3,84,0.05,-RA,FEW,0.13,WeatherDisplay:10.37,2013-02-07 11:17:00,
2013-02-07 05:23:00,35.6,29.1,29.91,East,90,0.7,3.5,77,0.05,-RA,FEW,0.13,WeatherDisplay:10.37,2013-02-07 11:23:00,
2013-02-07 05:29:00,35.6,31.2,29.90,SW,225,0.7,3.1,84,0.04,-RA,FEW,0.13,WeatherDisplay:10.37,2013-02-07 11:29:00,
2013-02-07 05:34:00,35.6,31.2,29.90,South,180,1.6,3.1,84,0.02,-RA,FEW,0.13,WeatherDisplay:10.37,2013-02-07 11:34:00,
2013-02-07 05:40:00,35.4,28.9,29.90,South,180,1.6,2.3,77,0.02,-RA,FEW,0.13,WeatherDisplay:10.37,2013-02-07 11:40:00,
2013-02-07 05:45:00,35.6,29.1,29.91,South,180,0.7,2.3,77,0.04,-RA,FEW,0.14,WeatherDisplay:10.37,2013-02-07 11:45:00,
2013-02-07 05:51:00,35.4,28.9,29.91,South,180,0.0,2.3,77,0.02,-RA,FEW,0.14,WeatherDisplay:10.37,2013-02-07 11:51:00,
2013-02-07 05:57:00,35.6,31.2,29.90,SE,135,0.7,3.5,84,0.02,-RA,FEW,0.14,WeatherDisplay:10.37,2013-02-07 11:57:00,
2013-02-07 06:02:00,35.6,29.1,29.90,SE,135,0.7,3.5,77,0.01,-RA,FEW,0.14,WeatherDisplay:10.37,2013-02-07 12:02:00,
2013-02-07 06:08:00,35.6,29.1,29.90,East,90,0.7,2.3,77,0.01,-RA,FEW,0.14,WeatherDisplay:10.37,2013-02-07 12:08:00,
2013-02-07 06:13:00,35.4,31.1,29.90,SE,135,0.0,2.3,84,0.01,-RA,FEW,0.14,WeatherDisplay:10.37,2013-02-07 12:13:00,
2013-02-07 06:19:00,35.4,31.1,29.90,SE,135,0.0,3.5,84,0.01,-RA,FEW,0.14,WeatherDisplay:10.37,2013-02-07 12:19:00,
2013-02-07 06:25:00,35.4,31.1,29.90,East,90,0.0,0.0,84,0.01,-RA,FEW,0.14,WeatherDisplay:10.37,2013-02-07 12:25:00,
2013-02-07 06:30:00,35.4,28.9,29.90,SE,135,0.0,1.1,77,0.01,-RA,FEW,0.14,WeatherDisplay:10.37,2013-02-07 12:30:00,
2013-02-07 06:36:00,35.4,28.9,29.90,SE,135,0.7,1.1,77,0.01,-RA,FEW,0.14,WeatherDisplay:10.37,2013-02-07 12:36:00,
2013-02-07 06:41:00,35.4,31.1,29.89,East,90,0.0,2.3,84,0.01,-RA,FEW,0.15,WeatherDisplay:10.37,2013-02-07 12:41:00,
2013-02-07 06:47:00,35.2,28.8,29.89,East,90,0.7,2.3,77,0.01,-RA,FEW,0.15,WeatherDisplay:10.37,2013-02-07 12:47:00,
2013-02-07 06:53:00,35.4,31.1,29.89,East,90,0.0,2.3,84,0.01,-RA,FEW,0.15,WeatherDisplay:10.37,2013-02-07 12:53:00,
2013-02-07 06:58:00,35.4,28.9,29.89,SSE,158,0.7,3.5,77,0.01,-RA,FEW,0.15,WeatherDisplay:10.37,2013-02-07 12:58:00,
2013-02-07 07:04:00,35.4,28.9,29.90,South,180,0.0,1.6,77,0.01,-RA,FEW,0.15,WeatherDisplay:10.37,2013-02-07 13:04:00,
2013-02-07 07:09:00,35.4,28.9,29.90,SE,135,1.6,3.5,77,0.01,-RA,FEW,0.15,WeatherDisplay:10.37,2013-02-07 13:09:00,
2013-02-07 07:15:00,35.4,28.9,29.90,East,90,0.7,1.1,77,0.01,-RA,FEW,0.15,WeatherDisplay:10.37,2013-02-07 13:15:00,
2013-02-07 07:21:00,35.4,31.1,29.90,SE,135,0.7,3.5,84,0.01,-RA,FEW,0.15,WeatherDisplay:10.37,2013-02-07 13:21:00,
2013-02-07 07:26:00,35.4,28.9,29.90,SE,135,0.7,4.6,77,0.01,-RA,FEW,0.15,WeatherDisplay:10.37,2013-02-07 13:26:00,
2013-02-07 07:32:00,35.4,31.1,29.90,South,180,0.0,2.3,84,0.01,-RA,FEW,0.15,WeatherDisplay:10.37,2013-02-07 13:32:00,
2013-02-07 07:37:00,35.2,30.9,29.90,East,90,1.6,3.5,84,0.02,-RA,FEW,0.18,WeatherDisplay:10.37,2013-02-07 13:37:00,
2013-02-07 07:43:00,35.2,28.8,29.90,East,90,0.7,1.1,77,0.02,-RA,FEW,0.18,WeatherDisplay:10.37,2013-02-07 13:43:00,
2013-02-07 07:49:00,35.2,30.9,29.89,East,90,0.7,1.6,84,0.02,-RA,FEW,0.18,WeatherDisplay:10.37,2013-02-07 13:49:00,
2013-02-07 07:54:00,35.4,31.1,29.90,East,90,1.6,3.8,84,0.02,-RA,FEW,0.18,WeatherDisplay:10.37,2013-02-07 13:54:00,
2013-02-07 08:00:00,35.2,28.8,29.90,SE,135,1.6,3.5,77,0.02,-RA,FEW,0.18,WeatherDisplay:10.37,2013-02-07 14:00:00,
2013-02-07 08:05:00,35.4,29.9,29.90,East,90,1.6,3.5,80,0.04,-RA,FEW,0.19,WeatherDisplay:10.37,2013-02-07 14:05:00,
2013-02-07 08:11:00,35.2,29.7,29.90,SE,135,1.6,3.5,80,0.04,-RA,FEW,0.19,WeatherDisplay:10.37,2013-02-07 14:11:00,
2013-02-07 08:17:00,35.4,29.9,29.90,SE,135,0.0,1.1,80,0.05,-RA,FEW,0.20,WeatherDisplay:10.37,2013-02-07 14:17:00,
2013-02-07 08:22:00,35.4,29.9,29.90,East,90,0.7,2.3,80,0.05,-RA,FEW,0.20,WeatherDisplay:10.37,2013-02-07 14:22:00,
2013-02-07 08:28:00,35.4,29.9,29.90,SE,135,0.7,2.3,80,0.06,-RA,FEW,0.21,WeatherDisplay:10.37,2013-02-07 14:28:00,
2013-02-07 08:33:00,35.4,31.1,29.90,South,180,1.6,3.1,84,0.07,-RA,FEW,0.22,WeatherDisplay:10.37,2013-02-07 14:33:00,
2013-02-07 08:39:00,35.4,31.1,29.90,East,90,0.0,2.2,84,0.05,-RA,FEW,0.22,WeatherDisplay:10.37,2013-02-07 14:39:00,
2013-02-07 08:45:00,35.4,29.9,29.90,East,90,0.0,1.1,80,0.06,-RA,FEW,0.24,WeatherDisplay:10.37,2013-02-07 14:45:00,
2013-02-07 08:50:00,35.4,31.1,29.90,South,180,0.0,1.6,84,0.06,-RA,FEW,0.25,WeatherDisplay:10.37,2013-02-07 14:50:00,
2013-02-07 08:56:00,35.4,29.9,29.90,SE,135,0.7,2.3,80,0.07,-RA,FEW,0.25,WeatherDisplay:10.37,2013-02-07 14:56:00,
2013-02-07 09:01:00,35.4,31.1,29.90,SE,135,0.7,3.5,84,0.07,-RA,FEW,0.25,WeatherDisplay:10.37,2013-02-07 15:01:00,
2013-02-07 09:07:00,35.4,29.2,29.89,East,90,0.7,3.5,78,0.06,-RA,FEW,0.25,WeatherDisplay:10.37,2013-02-07 15:07:00,
2013-02-07 09:13:00,35.6,29.4,29.90,East,90,0.0,3.5,78,0.07,-RA,FEW,0.26,WeatherDisplay:10.37,2013-02-07 15:13:00,
2013-02-07 09:18:00,35.6,31.2,29.90,SE,135,0.0,2.3,84,0.06,-RA,FEW,0.26,WeatherDisplay:10.37,2013-02-07 15:18:00,
2013-02-07 09:24:00,35.6,29.4,29.89,East,90,0.7,2.3,78,0.06,-RA,FEW,0.27,WeatherDisplay:10.37,2013-02-07 15:24:00,
2013-02-07 09:29:00,35.6,29.4,29.90,South,180,0.0,1.1,78,0.06,-RA,FEW,0.27,WeatherDisplay:10.37,2013-02-07 15:29:00,
2013-02-07 09:35:00,35.4,29.2,29.89,South,180,0.7,3.5,78,0.06,-RA,FEW,0.28,WeatherDisplay:10.37,2013-02-07 15:35:00,
2013-02-07 09:41:00,35.4,31.1,29.89,South,180,0.0,2.2,84,0.06,-RA,FEW,0.28,WeatherDisplay:10.37,2013-02-07 15:41:00,
2013-02-07 09:46:00,35.6,31.2,29.89,SE,135,0.7,3.5,84,0.05,-RA,FEW,0.30,WeatherDisplay:10.37,2013-02-07 15:46:00,
2013-02-07 09:52:00,35.6,29.4,29.89,East,90,0.0,2.3,78,0.05,-RA,FEW,0.30,WeatherDisplay:10.37,2013-02-07 15:52:00,
2013-02-07 09:57:00,35.6,29.4,29.89,East,90,0.0,1.1,78,0.05,-RA,FEW,0.30,WeatherDisplay:10.37,2013-02-07 15:57:00,
2013-02-07 10:03:00,35.8,29.3,29.88,East,90,0.0,2.3,77,0.06,-RA,FEW,0.31,WeatherDisplay:10.37,2013-02-07 16:03:00,
2013-02-07 10:09:00,35.8,31.4,29.88,SE,135,0.7,2.2,84,0.05,-RA,FEW,0.31,WeatherDisplay:10.37,2013-02-07 16:09:00,
2013-02-07 10:14:00,35.8,29.3,29.89,East,90,0.0,3.5,77,0.05,-RA,FEW,0.31,WeatherDisplay:10.37,2013-02-07 16:14:00,
2013-02-07 10:20:00,36.0,29.4,29.88,South,180,0.0,2.3,77,0.05,-RA,FEW,0.32,WeatherDisplay:10.37,2013-02-07 16:20:00,
2013-02-07 10:25:00,36.0,31.6,29.88,East,90,0.0,1.1,84,0.05,-RA,FEW,0.32,WeatherDisplay:10.37,2013-02-07 16:25:00,
2013-02-07 10:31:00,36.1,29.6,29.89,NE,45,0.0,1.1,77,0.05,-RA,FEW,0.32,WeatherDisplay:10.37,2013-02-07 16:31:00,
2013-02-07 10:37:00,36.3,29.8,29.89,SE,135,0.0,1.1,77,0.04,-RA,FEW,0.32,WeatherDisplay:10.37,2013-02-07 16:37:00,
2013-02-07 10:42:00,36.3,29.8,29.89,South,180,0.0,1.1,77,0.05,-RA,FEW,0.33,WeatherDisplay:10.37,2013-02-07 16:42:00,
2013-02-07 10:48:00,36.5,30.0,29.89,South,180,0.0,1.6,77,0.04,-RA,FEW,0.33,WeatherDisplay:10.37,2013-02-07 16:48:00,
2013-02-07 10:53:00,36.3,31.9,29.89,SW,225,0.0,1.6,84,0.05,-RA,FEW,0.34,WeatherDisplay:10.37,2013-02-07 16:53:00,
2013-02-07 10:59:00,36.5,32.1,29.89,SE,135,0.0,3.5,84,0.05,-RA,FEW,0.34,WeatherDisplay:10.37,2013-02-07 16:59:00,
2013-02-07 11:05:00,36.5,31.2,29.89,SE,135,0.7,2.3,81,0.04,-RA,FEW,0.34,WeatherDisplay:10.37,2013-02-07 17:05:00,
2013-02-07 11:10:00,36.3,31.9,29.88,East,90,0.0,1.1,84,0.04,-RA,FEW,0.34,WeatherDisplay:10.37,2013-02-07 17:10:00,
2013-02-07 11:16:00,36.3,31.0,29.88,East,90,0.0,1.1,81,0.04,-RA,FEW,0.34,WeatherDisplay:10.37,2013-02-07 17:16:00,
2013-02-07 11:21:00,36.5,32.1,29.88,East,90,0.0,1.1,84,0.02,-RA,FEW,0.35,WeatherDisplay:10.37,2013-02-07 17:21:00,
2013-02-07 11:27:00,36.5,31.2,29.88,SE,135,0.0,1.1,81,0.04,-RA,FEW,0.35,WeatherDisplay:10.37,2013-02-07 17:27:00,
2013-02-07 11:33:00,36.5,31.2,29.87,NE,45,0.0,1.1,81,0.05,-RA,FEW,0.37,WeatherDisplay:10.37,2013-02-07 17:33:00,
2013-02-07 11:38:00,36.7,32.3,29.87,NE,45,0.0,0.0,84,0.05,-RA,FEW,0.37,WeatherDisplay:10.37,2013-02-07 17:38:00,
2013-02-07 11:44:00,36.7,31.4,29.87,West,270,0.0,0.0,81,0.04,-RA,FEW,0.37,WeatherDisplay:10.37,2013-02-07 17:44:00,
2013-02-07 11:49:00,36.9,31.6,29.86,South,180,0.0,1.1,81,0.05,-RA,FEW,0.38,WeatherDisplay:10.37,2013-02-07 17:49:00,
2013-02-07 11:55:00,36.7,31.4,29.87,East,90,0.0,2.3,81,0.04,-RA,FEW,0.38,WeatherDisplay:10.37,2013-02-07 17:55:00,
2013-02-07 12:01:00,36.7,31.4,29.86,South,180,0.0,0.0,81,0.04,-RA,FEW,0.38,WeatherDisplay:10.37,2013-02-07 18:01:00,
2013-02-07 12:06:00,36.7,30.1,29.86,West,270,0.0,0.0,77,0.05,-RA,FEW,0.39,WeatherDisplay:10.37,2013-02-07 18:06:00,
2013-02-07 12:12:00,36.9,30.3,29.86,West,270,0.0,0.0,77,0.05,-RA,FEW,0.39,WeatherDisplay:10.37,2013-02-07 18:12:00,
2013-02-07 12:17:00,36.9,30.3,29.85,North,0,0.0,0.0,77,0.05,-RA,FEW,0.39,WeatherDisplay:10.37,2013-02-07 18:17:00,
2013-02-07 12:23:00,36.9,30.3,29.86,South,180,0.0,0.0,77,0.05,-RA,FEW,0.40,WeatherDisplay:10.37,2013-02-07 18:23:00,
2013-02-07 12:29:00,36.9,32.5,29.85,South,180,0.0,0.0,84,0.05,-RA,FEW,0.40,WeatherDisplay:10.37,2013-02-07 18:29:00,
2013-02-07 12:34:00,36.9,30.3,29.85,South,180,0.0,0.0,77,0.05,-RA,FEW,0.41,WeatherDisplay:10.37,2013-02-07 18:34:00,
2013-02-07 12:40:00,36.9,30.3,29.85,NE,45,0.0,0.0,77,0.05,-RA,FEW,0.41,WeatherDisplay:10.37,2013-02-07 18:40:00,
2013-02-07 12:45:00,36.9,32.5,29.85,NE,45,0.0,0.0,84,0.05,-RA,FEW,0.41,WeatherDisplay:10.37,2013-02-07 18:45:00,
2013-02-07 12:51:00,36.9,30.3,29.84,North,0,0.0,0.0,77,0.05,-RA,FEW,0.43,WeatherDisplay:10.37,2013-02-07 18:51:00,
2013-02-07 12:57:00,37.0,32.7,29.84,NW,315,0.0,0.0,84,0.05,-RA,FEW,0.43,WeatherDisplay:10.37,2013-02-07 18:57:00,
2013-02-07 13:02:00,37.0,30.5,29.84,North,0,0.0,0.0,77,0.06,-RA,FEW,0.44,WeatherDisplay:10.37,2013-02-07 19:02:00,
2013-02-07 13:08:00,37.0,30.5,29.84,North,0,0.0,0.0,77,0.05,-RA,FEW,0.44,WeatherDisplay:10.37,2013-02-07 19:08:00,
2013-02-07 13:13:00,37.2,32.8,29.84,SW,225,0.0,0.0,84,0.05,-RA,FEW,0.44,WeatherDisplay:10.37,2013-02-07 19:13:00,
2013-02-07 13:19:00,37.4,33.0,29.84,SW,225,0.0,0.0,84,0.05,-RA,FEW,0.44,WeatherDisplay:10.37,2013-02-07 19:19:00,
2013-02-07 13:25:00,37.6,33.2,29.84,North,0,0.0,0.0,84,0.05,-RA,FEW,0.45,WeatherDisplay:10.37,2013-02-07 19:25:00,
2013-02-07 13:30:00,37.6,33.2,29.84,North,0,0.0,0.0,84,0.05,-RA,FEW,0.45,WeatherDisplay:10.37,2013-02-07 19:30:00,
2013-02-07 13:36:00,37.6,31.0,29.83,North,0,0.0,0.0,77,0.04,-RA,FEW,0.45,WeatherDisplay:10.37,2013-02-07 19:36:00,
2013-02-07 13:41:00,37.4,30.8,29.83,NW,315,0.0,1.1,77,0.04,-RA,FEW,0.45,WeatherDisplay:10.37,2013-02-07 19:41:00,
2013-02-07 13:47:00,37.2,30.7,29.83,North,0,0.0,0.0,77,0.04,-RA,FEW,0.45,WeatherDisplay:10.37,2013-02-07 19:47:00,
2013-02-07 13:53:00,37.4,30.8,29.83,North,0,0.0,0.0,77,0.04,-RA,FEW,0.46,WeatherDisplay:10.37,2013-02-07 19:53:00,
2013-02-07 13:58:00,37.2,32.8,29.83,NW,315,0.0,0.0,84,0.04,-RA,FEW,0.46,WeatherDisplay:10.37,2013-02-07 19:58:00,
2013-02-07 14:04:00,37.4,30.8,29.83,North,0,0.0,0.0,77,0.04,-RA,FEW,0.47,WeatherDisplay:10.37,2013-02-07 20:04:00,
2013-02-07 14:09:00,37.4,33.0,29.83,NW,315,0.0,0.0,84,0.04,-RA,FEW,0.47,WeatherDisplay:10.37,2013-02-07 20:09:00,
2013-02-07 14:15:00,37.4,30.8,29.83,North,0,0.0,0.0,77,0.04,-RA,FEW,0.47,WeatherDisplay:10.37,2013-02-07 20:15:00,
2013-02-07 14:21:00,37.4,33.0,29.82,NW,315,0.0,1.6,84,0.05,-RA,FEW,0.48,WeatherDisplay:10.37,2013-02-07 20:21:00,
2013-02-07 14:26:00,37.4,30.8,29.82,NW,315,0.0,1.1,77,0.05,-RA,FEW,0.50,WeatherDisplay:10.37,2013-02-07 20:26:00,
2013-02-07 14:32:00,37.2,30.7,29.82,NW,315,0.0,1.6,77,0.05,-RA,FEW,0.50,WeatherDisplay:10.37,2013-02-07 20:32:00,
2013-02-07 14:37:00,37.2,30.7,29.82,NW,315,0.7,1.1,77,0.05,-RA,FEW,0.50,WeatherDisplay:10.37,2013-02-07 20:37:00,
2013-02-07 14:43:00,37.2,30.7,29.81,North,0,0.7,2.3,77,0.06,-RA,FEW,0.51,WeatherDisplay:10.37,2013-02-07 20:43:00,
2013-02-07 14:49:00,37.2,32.8,29.81,North,0,1.6,3.5,84,0.06,-RA,FEW,0.51,WeatherDisplay:10.37,2013-02-07 20:49:00,
2013-02-07 14:54:00,37.4,33.0,29.81,North,0,0.0,3.5,84,0.06,-RA,FEW,0.52,WeatherDisplay:10.37,2013-02-07 20:54:00,
2013-02-07 15:00:00,37.4,30.8,29.82,North,0,3.1,5.8,77,0.06,-RA,FEW,0.52,WeatherDisplay:10.37,2013-02-07 21:00:00,
2013-02-07 15:05:00,37.2,32.8,29.82,North,0,3.1,5.4,84,0.06,-RA,FEW,0.53,WeatherDisplay:10.37,2013-02-07 21:05:00,
2013-02-07 15:11:00,37.0,30.5,29.82,North,0,1.6,3.5,77,0.06,-RA,FEW,0.53,WeatherDisplay:10.37,2013-02-07 21:11:00,
2013-02-07 15:17:00,36.9,32.5,29.82,North,0,1.6,4.6,84,0.06,-RA,FEW,0.53,WeatherDisplay:10.37,2013-02-07 21:17:00,
2013-02-07 15:22:00,36.9,32.5,29.81,North,0,3.1,4.6,84,0.05,-RA,FEW,0.53,WeatherDisplay:10.37,2013-02-07 21:22:00,
2013-02-07 15:28:00,36.9,30.3,29.82,NW,315,1.6,3.5,77,0.04,-RA,FEW,0.53,WeatherDisplay:10.37,2013-02-07 21:28:00,
2013-02-07 15:33:00,37.0,30.5,29.82,NW,315,1.6,4.6,77,0.04,-RA,FEW,0.53,WeatherDisplay:10.37,2013-02-07 21:33:00,
2013-02-07 15:39:00,36.9,32.5,29.82,WSW,248,2.2,3.8,84,0.04,-RA,FEW,0.54,WeatherDisplay:10.37,2013-02-07 21:39:00,
2013-02-07 15:45:00,36.9,32.5,29.82,North,0,3.1,5.8,84,0.04,-RA,FEW,0.54,WeatherDisplay:10.37,2013-02-07 21:45:00,
2013-02-07 16:06:00,36.9,32.5,29.84,North,0,3.1,6.9,84,0.01,-RA,FEW,0.54,WeatherDisplay:10.37,2013-02-07 22:06:00,
2013-02-07 16:12:00,36.7,30.1,29.85,North,0,3.8,5.4,77,0.01,-RA,FEW,0.54,WeatherDisplay:10.37,2013-02-07 22:12:00,
2013-02-07 16:26:00,36.0,31.6,29.84,NW,315,3.1,8.3,84,0.01,-RA,FEW,0.54,WeatherDisplay:10.37,2013-02-07 22:26:00,
2013-02-07 16:31:00,35.8,29.3,29.85,NW,315,3.8,8.1,77,0.02,-RA,FEW,0.56,WeatherDisplay:10.37,2013-02-07 22:31:00,
2013-02-07 16:45:00,35.2,28.8,29.84,NW,315,2.2,8.1,77,0.01,-RA,FEW,0.56,WeatherDisplay:10.37,2013-02-07 22:45:00,
2013-02-07 17:18:00,34.3,27.9,29.85,North,0,3.1,6.9,77,0.02,-RA,FEW,0.57,WeatherDisplay:10.37,2013-02-07 23:18:00,
2013-02-07 17:24:00,34.2,27.7,29.85,North,0,1.6,3.5,77,0.02,-RA,FEW,0.57,WeatherDisplay:10.37,2013-02-07 23:24:00,
2013-02-07 17:29:00,34.2,29.8,29.85,NW,315,2.2,4.5,84,0.01,-RA,FEW,0.57,WeatherDisplay:10.37,2013-02-07 23:29:00,
2013-02-07 17:35:00,34.2,29.8,29.86,NW,315,2.2,5.8,84,0.01,-RA,FEW,0.57,WeatherDisplay:10.37,2013-02-07 23:35:00,
2013-02-07 17:41:00,34.2,29.8,29.87,North,0,1.6,6.9,84,0.01,-RA,FEW,0.57,WeatherDisplay:10.37,2013-02-07 23:41:00,
2013-02-07 17:46:00,34.2,27.7,29.87,North,0,3.1,6.9,77,0.01,-RA,FEW,0.57,WeatherDisplay:10.37,2013-02-07 23:46:00,
2013-02-07 17:52:00,34.2,29.8,29.87,NW,315,1.6,5.8,84,0.01,-RA,FEW,0.57,WeatherDisplay:10.37,2013-02-07 23:52:00,
2013-02-07 17:57:00,34.0,29.7,29.88,NW,315,0.7,6.9,84,0.00,-RA,FEW,0.57,WeatherDisplay:10.37,2013-02-07 23:57:00,
2013-02-07 18:03:00,34.0,28.5,29.88,NW,315,4.5,10.4,80,0.00,OVC,FEW,0.57,WeatherDisplay:10.37,2013-02-08 00:03:00,
2013-02-07 18:20:00,33.6,28.1,29.89,NW,315,3.1,9.2,80,0.00,OVC,FEW,0.57,WeatherDisplay:10.37,2013-02-08 00:20:00,
2013-02-07 18:25:00,33.6,28.1,29.89,NW,315,3.1,6.9,80,0.00,OVC,FEW,0.57,WeatherDisplay:10.37,2013-02-08 00:25:00,
2013-02-07 18:31:00,33.4,27.9,29.90,NW,315,3.8,6.9,80,0.01,RA,FEW,0.58,WeatherDisplay:10.37,2013-02-08 00:31:00,
2013-02-07 18:37:00,33.6,28.1,29.91,NW,315,3.8,5.8,80,0.01,RA,FEW,0.58,WeatherDisplay:10.37,2013-02-08 00:37:00,
2013-02-07 18:42:00,33.6,28.1,29.91,NW,315,3.8,8.1,80,0.01,OVC,FEW,0.58,WeatherDisplay:10.37,2013-02-08 00:42:00,
2013-02-07 18:48:00,33.4,29.1,29.91,North,0,3.1,8.1,84,0.01,OVC,FEW,0.58,WeatherDisplay:10.37,2013-02-08 00:48:00,
2013-02-07 18:53:00,33.6,29.3,29.91,NW,315,3.8,6.9,84,0.01,OVC,FEW,0.58,WeatherDisplay:10.37,2013-02-08 00:53:00,
2013-02-07 18:59:00,33.6,28.1,29.92,NW,315,3.8,9.2,80,0.01,OVC,FEW,0.58,WeatherDisplay:10.37,2013-02-08 00:59:00,
2013-02-07 19:49:00,34.2,29.8,29.95,NW,315,6.9,13.0,84,0.00,-SN,FEW,0.58,WeatherDisplay:10.37,2013-02-08 01:49:00,
2013-02-07 19:55:00,34.2,28.6,29.95,NW,315,6.0,10.4,80,0.00,-SN,FEW,0.58,WeatherDisplay:10.37,2013-02-08 01:55:00,
2013-02-07 20:01:00,34.2,29.8,29.95,NW,315,5.4,9.8,84,0.00,-SN,FEW,0.58,WeatherDisplay:10.37,2013-02-08 02:01:00,
2013-02-07 20:06:00,34.2,27.7,29.95,NW,315,5.4,10.4,77,0.00,OVC,FEW,0.58,WeatherDisplay:10.37,2013-02-08 02:06:00,
2013-02-07 20:12:00,34.2,27.7,29.94,NW,315,3.8,8.3,77,0.00,OVC,FEW,0.58,WeatherDisplay:10.37,2013-02-08 02:12:00,
2013-02-07 20:17:00,34.3,30.0,29.95,NW,315,3.8,10.4,84,0.00,OVC,FEW,0.58,WeatherDisplay:10.37,2013-02-08 02:17:00,
2013-02-07 20:23:00,34.3,30.0,29.95,North,0,3.8,10.4,84,0.00,OVC,FEW,0.58,WeatherDisplay:10.37,2013-02-08 02:23:00,
2013-02-07 20:29:00,34.3,30.0,29.95,West,270,3.8,10.4,84,0.00,OVC,FEW,0.58,WeatherDisplay:10.37,2013-02-08 02:29:00,
2013-02-07 20:34:00,34.3,27.9,29.95,NW,315,2.2,5.8,77,0.00,OVC,FEW,0.58,WeatherDisplay:10.37,2013-02-08 02:34:00,
2013-02-07 20:40:00,34.2,27.7,29.95,North,0,4.5,10.4,77,0.00,OVC,FEW,0.58,WeatherDisplay:10.37,2013-02-08 02:40:00,
2013-02-07 20:45:00,34.2,27.7,29.95,NW,315,3.1,6.9,77,0.00,OVC,FEW,0.58,WeatherDisplay:10.37,2013-02-08 02:45:00,
2013-02-07 20:51:00,34.2,29.8,29.95,North,0,3.8,9.2,84,0.00,OVC,FEW,0.58,WeatherDisplay:10.37,2013-02-08 02:51:00,
2013-02-07 20:57:00,34.3,30.0,29.96,NW,315,5.4,9.2,84,0.00,OVC,FEW,0.58,WeatherDisplay:10.37,2013-02-08 02:57:00,
2013-02-07 21:02:00,34.2,27.7,29.96,East,90,2.2,5.8,77,0.00,OVC,FEW,0.58,WeatherDisplay:10.37,2013-02-08 03:02:00,
2013-02-07 21:08:00,34.2,27.7,29.96,NW,315,5.4,8.1,77,0.00,OVC,FEW,0.58,WeatherDisplay:10.37,2013-02-08 03:08:00,
2013-02-07 21:13:00,34.2,27.7,29.97,NW,315,5.4,9.2,77,0.00,OVC,FEW,0.58,WeatherDisplay:10.37,2013-02-08 03:13:00,
2013-02-07 21:19:00,34.2,27.7,29.97,NE,45,3.8,9.2,77,0.00,OVC,FEW,0.58,WeatherDisplay:10.37,2013-02-08 03:19:00,
2013-02-07 21:25:00,34.0,29.7,29.97,North,0,6.9,11.5,84,0.00,OVC,FEW,0.58,WeatherDisplay:10.37,2013-02-08 03:25:00,
2013-02-07 21:30:00,34.0,27.5,29.97,NW,315,6.9,16.1,77,0.00,OVC,FEW,0.58,WeatherDisplay:10.37,2013-02-08 03:30:00,
2013-02-07 21:36:00,34.0,27.5,29.97,West,270,5.4,9.2,77,0.00,OVC,FEW,0.58,WeatherDisplay:10.37,2013-02-08 03:36:00,
2013-02-07 21:41:00,33.8,27.4,29.98,North,0,5.4,12.7,77,0.00,OVC,FEW,0.58,WeatherDisplay:10.37,2013-02-08 03:41:00,
2013-02-07 21:47:00,33.8,27.4,29.98,North,0,6.0,11.5,77,0.00,OVC,FEW,0.58,WeatherDisplay:10.37,2013-02-08 03:47:00,
2013-02-07 21:53:00,33.6,27.2,29.98,North,0,3.1,9.2,77,0.00,OVC,FEW,0.58,WeatherDisplay:10.37,2013-02-08 03:53:00,
2013-02-07 21:58:00,33.6,29.3,29.98,NW,315,3.8,6.0,84,0.00,OVC,FEW,0.58,WeatherDisplay:10.37,2013-02-08 03:58:00,
2013-02-07 22:04:00,33.6,29.3,29.99,NW,315,6.0,12.7,84,0.00,OVC,FEW,0.58,WeatherDisplay:10.37,2013-02-08 04:04:00,
2013-02-07 22:09:00,33.4,29.1,29.99,NW,315,6.0,11.5,84,0.00,OVC,FEW,0.58,WeatherDisplay:10.37,2013-02-08 04:09:00,
2013-02-07 22:15:00,33.3,25.5,29.99,NW,315,5.4,11.5,73,0.00,OVC,FEW,0.58,WeatherDisplay:10.37,2013-02-08 04:15:00,
2013-02-07 22:21:00,33.3,28.9,30.00,NW,315,5.4,10.4,84,0.00,OVC,FEW,0.58,WeatherDisplay:10.37,2013-02-08 04:21:00,
2013-02-07 22:26:00,33.3,25.5,29.99,WNW,292,4.5,10.4,73,0.00,OVC,FEW,0.58,WeatherDisplay:10.37,2013-02-08 04:26:00,
2013-02-07 22:32:00,33.1,25.4,29.99,East,90,5.4,10.4,73,0.00,OVC,FEW,0.58,WeatherDisplay:10.37,2013-02-08 04:32:00,
2013-02-07 22:37:00,33.1,28.8,29.99,East,90,6.9,13.0,84,0.00,OVC,FEW,0.58,WeatherDisplay:10.37,2013-02-08 04:37:00,
2013-02-07 22:43:00,32.9,25.2,29.99,NW,315,4.5,8.1,73,0.00,OVC,FEW,0.58,WeatherDisplay:10.37,2013-02-08 04:43:00,
2013-02-07 22:49:00,32.7,25.0,30.00,NE,45,7.6,10.4,73,0.00,OVC,FEW,0.58,WeatherDisplay:10.37,2013-02-08 04:49:00,
2013-02-07 22:54:00,32.7,25.0,30.00,North,0,3.8,10.4,73,0.00,OVC,FEW,0.58,WeatherDisplay:10.37,2013-02-08 04:54:00,
2013-02-07 23:00:00,32.7,25.0,30.00,North,0,3.8,8.1,73,0.00,OVC,FEW,0.58,WeatherDisplay:10.37,2013-02-08 05:00:00,
2013-02-07 23:02:00,32.5,24.8,30.00,North,0,3.1,10.4,73,0.00,OVC,FEW,0.58,WeatherDisplay:10.37,2013-02-08 05:02:00,
2013-02-07 23:08:00,32.5,24.8,30.00,North,0,3.1,10.4,73,0.00,OVC,FEW,0.58,WeatherDisplay:10.37,2013-02-08 05:08:00,
2013-02-07 23:13:00,32.5,28.2,30.00,North,0,6.9,17.3,84,0.00,OVC,FEW,0.58,WeatherDisplay:10.37,2013-02-08 05:13:00,
2013-02-07 23:19:00,32.2,24.5,30.01,North,0,9.2,15.0,73,0.00,OVC,FEW,0.58,WeatherDisplay:10.37,2013-02-08 05:19:00,
2013-02-07 23:25:00,32.0,24.3,30.01,North,0,9.2,13.8,73,0.00,OVC,FEW,0.58,WeatherDisplay:10.37,2013-02-08 05:25:00,
2013-02-07 23:30:00,32.0,27.7,30.01,NW,315,6.0,13.8,84,0.00,OVC,FEW,0.58,WeatherDisplay:10.37,2013-02-08 05:30:00,
2013-02-07 23:36:00,32.0,24.3,30.01,NW,315,4.5,8.1,73,0.00,OVC,FEW,0.58,WeatherDisplay:10.37,2013-02-08 05:36:00,
2013-02-07 23:41:00,32.0,24.3,30.01,NE,45,4.5,10.4,73,0.00,OVC,FEW,0.58,WeatherDisplay:10.37,2013-02-08 05:41:00,
2013-02-07 23:47:00,31.8,24.1,30.01,North,0,5.4,10.4,73,0.00,OVC,FEW,0.58,WeatherDisplay:10.37,2013-02-08 05:47:00,
2013-02-07 23:53:00,31.8,24.1,30.02,NW,315,3.8,8.1,73,0.00,OVC,FEW,0.58,WeatherDisplay:10.37,2013-02-08 05:53:00,
2013-02-07 23:58:00,31.8,27.5,30.02,North,0,6.0,11.5,84,0.00,OVC,FEW,0.58,WeatherDisplay:10.37,2013-02-08 05:58:00,